sensor_id;sensor_type;location;lat;lon;timestamp;temperature;humidity
69031;DHT22;56083;48.774;8.942;2023-06-24T00:02:16;13.50;99.90
69031;DHT22;56083;48.774;8.942;2023-06-24T00:04:42;13.50;99.90
69031;DHT22;56083;48.774;8.942;2023-06-24T00:07:08;13.40;99.90
69031;DHT22;56083;48.774;8.942;2023-06-24T00:09:33;13.30;99.90
69031;DHT22;56083;48.774;8.942;2023-06-24T00:11:59;13.30;99.90
69031;DHT22;56083;48.774;8.942;2023-06-24T00:14:26;13.20;99.90
69031;DHT22;56083;48.774;8.942;2023-06-24T00:16:53;13.20;99.90
69031;DHT22;56083;48.774;8.942;2023-06-24T00:19:20;13.10;99.90
69031;DHT22;56083;48.774;8.942;2023-06-24T00:21:46;13.00;99.90
69031;DHT22;56083;48.774;8.942;2023-06-24T00:24:12;13.00;99.90
69031;DHT22;56083;48.774;8.942;2023-06-24T00:26:38;13.00;99.90
69031;DHT22;56083;48.774;8.942;2023-06-24T00:29:03;12.90;99.90
69031;DHT22;56083;48.774;8.942;2023-06-24T00:31:29;12.90;99.90
69031;DHT22;56083;48.774;8.942;2023-06-24T00:33:55;12.90;99.90
69031;DHT22;56083;48.774;8.942;2023-06-24T00:36:21;12.80;99.90
69031;DHT22;56083;48.774;8.942;2023-06-24T00:38:46;12.80;99.90
69031;DHT22;56083;48.774;8.942;2023-06-24T00:41:14;12.80;99.90
69031;DHT22;56083;48.774;8.942;2023-06-24T00:43:41;12.80;99.90
69031;DHT22;56083;48.774;8.942;2023-06-24T00:46:07;12.70;99.90
69031;DHT22;56083;48.774;8.942;2023-06-24T00:48:32;12.70;99.90
69031;DHT22;56083;48.774;8.942;2023-06-24T00:50:58;12.60;99.90
69031;DHT22;56083;48.774;8.942;2023-06-24T00:53:24;12.70;99.90
69031;DHT22;56083;48.774;8.942;2023-06-24T00:55:51;12.70;99.90
69031;DHT22;56083;48.774;8.942;2023-06-24T00:58:19;12.70;99.90
69031;DHT22;56083;48.774;8.942;2023-06-24T01:00:48;12.60;99.90
69031;DHT22;56083;48.774;8.942;2023-06-24T01:03:24;12.70;99.90
69031;DHT22;56083;48.774;8.942;2023-06-24T01:05:50;12.60;99.90
69031;DHT22;56083;48.774;8.942;2023-06-24T01:08:17;12.50;99.90
69031;DHT22;56083;48.774;8.942;2023-06-24T01:10:45;12.50;99.90
69031;DHT22;56083;48.774;8.942;2023-06-24T01:13:11;12.50;99.90
69031;DHT22;56083;48.774;8.942;2023-06-24T01:15:37;12.50;99.90
69031;DHT22;56083;48.774;8.942;2023-06-24T01:29:34;12.50;99.90
69031;DHT22;56083;48.774;8.942;2023-06-24T01:34:56;12.40;99.90
69031;DHT22;56083;48.774;8.942;2023-06-24T01:37:37;12.30;99.90
69031;DHT22;56083;48.774;8.942;2023-06-24T01:42:40;12.20;99.90
69031;DHT22;56083;48.774;8.942;2023-06-24T01:45:09;12.10;99.90
69031;DHT22;56083;48.774;8.942;2023-06-24T01:47:36;12.10;99.90
69031;DHT22;56083;48.774;8.942;2023-06-24T01:50:04;12.10;99.90
69031;DHT22;56083;48.774;8.942;2023-06-24T01:52:31;12.00;99.90
69031;DHT22;56083;48.774;8.942;2023-06-24T01:54:59;11.90;99.90
69031;DHT22;56083;48.774;8.942;2023-06-24T01:57:27;11.90;99.90
69031;DHT22;56083;48.774;8.942;2023-06-24T01:59:54;11.80;99.90
69031;DHT22;56083;48.774;8.942;2023-06-24T02:02:21;11.90;99.90
69031;DHT22;56083;48.774;8.942;2023-06-24T02:04:49;11.90;99.90
69031;DHT22;56083;48.774;8.942;2023-06-24T02:07:17;11.80;99.90
69031;DHT22;56083;48.774;8.942;2023-06-24T02:09:45;11.80;99.90
69031;DHT22;56083;48.774;8.942;2023-06-24T02:12:11;11.80;99.90
69031;DHT22;56083;48.774;8.942;2023-06-24T02:14:38;11.80;99.90
69031;DHT22;56083;48.774;8.942;2023-06-24T02:17:06;11.80;99.90
69031;DHT22;56083;48.774;8.942;2023-06-24T02:19:33;11.80;99.90
69031;DHT22;56083;48.774;8.942;2023-06-24T02:21:59;11.80;99.90
69031;DHT22;56083;48.774;8.942;2023-06-24T02:24:27;11.80;99.90
69031;DHT22;56083;48.774;8.942;2023-06-24T02:26:53;11.70;99.90
69031;DHT22;56083;48.774;8.942;2023-06-24T02:29:20;11.70;99.90
69031;DHT22;56083;48.774;8.942;2023-06-24T02:31:47;11.60;99.90
69031;DHT22;56083;48.774;8.942;2023-06-24T02:34:12;11.50;99.90
69031;DHT22;56083;48.774;8.942;2023-06-24T02:36:38;11.40;99.90
69031;DHT22;56083;48.774;8.942;2023-06-24T02:39:04;11.30;99.90
69031;DHT22;56083;48.774;8.942;2023-06-24T02:41:30;11.30;99.90
69031;DHT22;56083;48.774;8.942;2023-06-24T02:43:55;11.30;99.90
69031;DHT22;56083;48.774;8.942;2023-06-24T02:46:22;11.30;99.90
69031;DHT22;56083;48.774;8.942;2023-06-24T02:48:48;11.30;99.90
69031;DHT22;56083;48.774;8.942;2023-06-24T02:51:15;11.30;99.90
69031;DHT22;56083;48.774;8.942;2023-06-24T02:53:41;11.40;99.90
69031;DHT22;56083;48.774;8.942;2023-06-24T02:56:08;11.40;99.90
69031;DHT22;56083;48.774;8.942;2023-06-24T02:58:36;11.40;99.90
69031;DHT22;56083;48.774;8.942;2023-06-24T03:01:04;11.40;99.90
69031;DHT22;56083;48.774;8.942;2023-06-24T03:03:34;11.40;99.90
69031;DHT22;56083;48.774;8.942;2023-06-24T03:06:00;11.40;99.90
69031;DHT22;56083;48.774;8.942;2023-06-24T03:08:28;11.30;99.90
69031;DHT22;56083;48.774;8.942;2023-06-24T03:10:57;11.30;99.90
69031;DHT22;56083;48.774;8.942;2023-06-24T03:13:23;11.30;99.90
69031;DHT22;56083;48.774;8.942;2023-06-24T03:15:48;11.30;99.90
69031;DHT22;56083;48.774;8.942;2023-06-24T03:18:15;11.30;99.90
69031;DHT22;56083;48.774;8.942;2023-06-24T03:20:41;11.40;99.90
69031;DHT22;56083;48.774;8.942;2023-06-24T03:23:07;11.40;99.90
69031;DHT22;56083;48.774;8.942;2023-06-24T03:25:33;11.30;99.90
69031;DHT22;56083;48.774;8.942;2023-06-24T03:27:59;11.30;99.90
69031;DHT22;56083;48.774;8.942;2023-06-24T03:30:29;11.40;99.90
69031;DHT22;56083;48.774;8.942;2023-06-24T03:32:55;11.40;99.90
69031;DHT22;56083;48.774;8.942;2023-06-24T03:35:23;11.40;99.90
69031;DHT22;56083;48.774;8.942;2023-06-24T03:37:48;11.40;99.90
69031;DHT22;56083;48.774;8.942;2023-06-24T03:40:14;11.50;99.90
69031;DHT22;56083;48.774;8.942;2023-06-24T03:42:40;11.40;99.90
69031;DHT22;56083;48.774;8.942;2023-06-24T03:45:06;11.50;99.90
69031;DHT22;56083;48.774;8.942;2023-06-24T03:47:31;11.40;99.90
69031;DHT22;56083;48.774;8.942;2023-06-24T03:49:57;11.40;99.90
69031;DHT22;56083;48.774;8.942;2023-06-24T03:52:24;11.30;99.90
69031;DHT22;56083;48.774;8.942;2023-06-24T03:54:49;11.30;99.90
69031;DHT22;56083;48.774;8.942;2023-06-24T03:57:15;11.40;99.90
69031;DHT22;56083;48.774;8.942;2023-06-24T03:59:41;11.40;99.90
69031;DHT22;56083;48.774;8.942;2023-06-24T04:02:06;11.40;99.90
69031;DHT22;56083;48.774;8.942;2023-06-24T04:04:35;11.50;99.90
69031;DHT22;56083;48.774;8.942;2023-06-24T04:07:01;11.50;99.90
69031;DHT22;56083;48.774;8.942;2023-06-24T04:09:28;11.60;99.90
69031;DHT22;56083;48.774;8.942;2023-06-24T04:11:54;11.70;99.90
69031;DHT22;56083;48.774;8.942;2023-06-24T04:14:19;11.80;99.90
69031;DHT22;56083;48.774;8.942;2023-06-24T04:16:45;11.90;99.90
69031;DHT22;56083;48.774;8.942;2023-06-24T04:19:12;12.00;99.90
69031;DHT22;56083;48.774;8.942;2023-06-24T04:21:37;12.10;99.90
69031;DHT22;56083;48.774;8.942;2023-06-24T04:24:03;12.20;99.90
69031;DHT22;56083;48.774;8.942;2023-06-24T04:26:29;12.40;99.90
69031;DHT22;56083;48.774;8.942;2023-06-24T04:28:55;12.50;99.90
69031;DHT22;56083;48.774;8.942;2023-06-24T04:31:21;12.60;99.90
69031;DHT22;56083;48.774;8.942;2023-06-24T04:33:46;12.70;99.90
69031;DHT22;56083;48.774;8.942;2023-06-24T04:36:12;12.90;99.90
69031;DHT22;56083;48.774;8.942;2023-06-24T04:38:38;13.00;99.90
69031;DHT22;56083;48.774;8.942;2023-06-24T04:41:03;13.10;99.90
69031;DHT22;56083;48.774;8.942;2023-06-24T04:43:29;13.20;99.90
69031;DHT22;56083;48.774;8.942;2023-06-24T04:45:55;13.40;99.90
69031;DHT22;56083;48.774;8.942;2023-06-24T04:48:23;13.50;99.90
69031;DHT22;56083;48.774;8.942;2023-06-24T04:50:49;13.60;99.90
69031;DHT22;56083;48.774;8.942;2023-06-24T04:53:14;13.70;99.90
69031;DHT22;56083;48.774;8.942;2023-06-24T04:55:40;13.80;99.90
69031;DHT22;56083;48.774;8.942;2023-06-24T04:58:06;13.80;99.90
69031;DHT22;56083;48.774;8.942;2023-06-24T05:00:31;13.90;99.90
69031;DHT22;56083;48.774;8.942;2023-06-24T05:02:57;13.90;99.90
69031;DHT22;56083;48.774;8.942;2023-06-24T05:05:23;14.10;99.90
69031;DHT22;56083;48.774;8.942;2023-06-24T05:07:49;14.10;99.90
69031;DHT22;56083;48.774;8.942;2023-06-24T05:10:14;14.30;99.90
69031;DHT22;56083;48.774;8.942;2023-06-24T05:12:40;14.40;99.90
69031;DHT22;56083;48.774;8.942;2023-06-24T05:15:06;14.50;99.90
69031;DHT22;56083;48.774;8.942;2023-06-24T05:17:32;14.70;99.90
69031;DHT22;56083;48.774;8.942;2023-06-24T05:19:58;14.70;99.90
69031;DHT22;56083;48.774;8.942;2023-06-24T05:22:24;14.80;99.90
69031;DHT22;56083;48.774;8.942;2023-06-24T05:24:49;14.80;99.90
69031;DHT22;56083;48.774;8.942;2023-06-24T05:27:15;14.90;99.90
69031;DHT22;56083;48.774;8.942;2023-06-24T05:29:43;15.00;99.90
69031;DHT22;56083;48.774;8.942;2023-06-24T05:32:08;15.10;99.90
69031;DHT22;56083;48.774;8.942;2023-06-24T05:34:34;15.30;99.90
69031;DHT22;56083;48.774;8.942;2023-06-24T05:37:00;15.40;99.90
69031;DHT22;56083;48.774;8.942;2023-06-24T05:39:26;15.60;99.90
69031;DHT22;56083;48.774;8.942;2023-06-24T05:41:52;15.70;99.90
69031;DHT22;56083;48.774;8.942;2023-06-24T05:44:18;15.80;99.90
69031;DHT22;56083;48.774;8.942;2023-06-24T05:46:44;16.00;99.90
69031;DHT22;56083;48.774;8.942;2023-06-24T05:49:10;16.20;99.90
69031;DHT22;56083;48.774;8.942;2023-06-24T05:51:36;16.20;99.90
69031;DHT22;56083;48.774;8.942;2023-06-24T05:54:01;16.40;99.90
69031;DHT22;56083;48.774;8.942;2023-06-24T05:56:27;16.60;99.90
69031;DHT22;56083;48.774;8.942;2023-06-24T05:58:53;16.70;99.90
69031;DHT22;56083;48.774;8.942;2023-06-24T06:01:18;16.80;99.90
69031;DHT22;56083;48.774;8.942;2023-06-24T06:03:44;16.90;99.90
69031;DHT22;56083;48.774;8.942;2023-06-24T06:06:09;17.10;99.90
69031;DHT22;56083;48.774;8.942;2023-06-24T06:08:35;17.30;99.90
69031;DHT22;56083;48.774;8.942;2023-06-24T06:11:29;17.40;99.90
69031;DHT22;56083;48.774;8.942;2023-06-24T06:13:58;17.70;99.90
69031;DHT22;56083;48.774;8.942;2023-06-24T06:16:25;17.80;99.90
69031;DHT22;56083;48.774;8.942;2023-06-24T06:18:54;18.00;99.90
69031;DHT22;56083;48.774;8.942;2023-06-24T06:21:19;18.30;99.90
69031;DHT22;56083;48.774;8.942;2023-06-24T06:23:45;18.50;99.90
69031;DHT22;56083;48.774;8.942;2023-06-24T06:26:10;18.60;99.90
69031;DHT22;56083;48.774;8.942;2023-06-24T06:28:36;18.80;99.90
69031;DHT22;56083;48.774;8.942;2023-06-24T06:31:02;19.00;99.90
69031;DHT22;56083;48.774;8.942;2023-06-24T06:33:27;19.10;99.90
69031;DHT22;56083;48.774;8.942;2023-06-24T06:35:53;19.30;99.90
69031;DHT22;56083;48.774;8.942;2023-06-24T06:38:19;19.50;99.90
69031;DHT22;56083;48.774;8.942;2023-06-24T06:40:44;19.70;99.90
69031;DHT22;56083;48.774;8.942;2023-06-24T06:43:10;19.90;99.90
69031;DHT22;56083;48.774;8.942;2023-06-24T06:45:36;20.10;99.90
69031;DHT22;56083;48.774;8.942;2023-06-24T06:48:02;20.30;99.90
69031;DHT22;56083;48.774;8.942;2023-06-24T06:50:30;20.40;99.90
69031;DHT22;56083;48.774;8.942;2023-06-24T06:52:56;20.50;99.90
69031;DHT22;56083;48.774;8.942;2023-06-24T06:55:22;20.60;99.90
69031;DHT22;56083;48.774;8.942;2023-06-24T06:57:47;20.70;99.90
69031;DHT22;56083;48.774;8.942;2023-06-24T07:00:13;20.90;99.90
69031;DHT22;56083;48.774;8.942;2023-06-24T07:02:39;21.20;99.90
69031;DHT22;56083;48.774;8.942;2023-06-24T07:05:04;21.50;99.90
69031;DHT22;56083;48.774;8.942;2023-06-24T07:07:30;21.70;99.90
69031;DHT22;56083;48.774;8.942;2023-06-24T07:09:58;21.90;99.90
69031;DHT22;56083;48.774;8.942;2023-06-24T07:12:23;22.00;99.90
69031;DHT22;56083;48.774;8.942;2023-06-24T07:14:50;22.20;99.90
69031;DHT22;56083;48.774;8.942;2023-06-24T07:17:16;22.40;99.90
69031;DHT22;56083;48.774;8.942;2023-06-24T07:19:42;22.60;99.90
69031;DHT22;56083;48.774;8.942;2023-06-24T07:22:07;22.90;99.90
69031;DHT22;56083;48.774;8.942;2023-06-24T07:24:33;23.10;99.90
69031;DHT22;56083;48.774;8.942;2023-06-24T07:26:58;23.30;99.90
69031;DHT22;56083;48.774;8.942;2023-06-24T07:29:24;23.30;99.90
69031;DHT22;56083;48.774;8.942;2023-06-24T07:31:50;23.50;99.90
69031;DHT22;56083;48.774;8.942;2023-06-24T07:34:15;23.40;99.90
69031;DHT22;56083;48.774;8.942;2023-06-24T07:36:41;23.30;99.90
69031;DHT22;56083;48.774;8.942;2023-06-24T07:39:06;23.50;99.90
69031;DHT22;56083;48.774;8.942;2023-06-24T07:41:32;23.70;99.90
69031;DHT22;56083;48.774;8.942;2023-06-24T07:43:58;23.60;99.90
69031;DHT22;56083;48.774;8.942;2023-06-24T07:46:24;24.00;99.90
69031;DHT22;56083;48.774;8.942;2023-06-24T07:48:52;24.20;99.90
69031;DHT22;56083;48.774;8.942;2023-06-24T07:51:18;24.60;99.90
69031;DHT22;56083;48.774;8.942;2023-06-24T07:53:43;25.10;99.90
69031;DHT22;56083;48.774;8.942;2023-06-24T07:56:09;25.90;99.90
69031;DHT22;56083;48.774;8.942;2023-06-24T07:58:45;25.90;99.90
69031;DHT22;56083;48.774;8.942;2023-06-24T08:01:13;25.50;99.90
69031;DHT22;56083;48.774;8.942;2023-06-24T08:03:42;25.90;99.90
69031;DHT22;56083;48.774;8.942;2023-06-24T08:06:20;26.40;99.90
69031;DHT22;56083;48.774;8.942;2023-06-24T08:08:47;26.60;99.90
69031;DHT22;56083;48.774;8.942;2023-06-24T08:11:13;27.10;99.90
69031;DHT22;56083;48.774;8.942;2023-06-24T08:13:46;27.40;99.90
69031;DHT22;56083;48.774;8.942;2023-06-24T08:16:11;27.60;99.90
69031;DHT22;56083;48.774;8.942;2023-06-24T08:18:38;27.90;99.90
69031;DHT22;56083;48.774;8.942;2023-06-24T08:21:06;28.40;99.90
69031;DHT22;56083;48.774;8.942;2023-06-24T08:23:32;29.00;98.90
69031;DHT22;56083;48.774;8.942;2023-06-24T08:25:58;29.50;97.00
69031;DHT22;56083;48.774;8.942;2023-06-24T08:28:23;30.30;96.00
69031;DHT22;56083;48.774;8.942;2023-06-24T08:30:49;31.30;92.90
69031;DHT22;56083;48.774;8.942;2023-06-24T08:33:15;31.50;90.80
69031;DHT22;56083;48.774;8.942;2023-06-24T08:35:40;31.70;87.50
69031;DHT22;56083;48.774;8.942;2023-06-24T08:38:06;31.40;85.90
69031;DHT22;56083;48.774;8.942;2023-06-24T08:40:32;31.30;82.90
69031;DHT22;56083;48.774;8.942;2023-06-24T08:42:57;31.20;82.50
69031;DHT22;56083;48.774;8.942;2023-06-24T08:45:26;31.60;79.20
69031;DHT22;56083;48.774;8.942;2023-06-24T08:47:53;31.60;78.70
69031;DHT22;56083;48.774;8.942;2023-06-24T08:50:19;31.80;77.40
69031;DHT22;56083;48.774;8.942;2023-06-24T08:52:51;31.80;75.90
69031;DHT22;56083;48.774;8.942;2023-06-24T08:55:22;31.60;77.50
69031;DHT22;56083;48.774;8.942;2023-06-24T08:57:51;32.10;75.50
69031;DHT22;56083;48.774;8.942;2023-06-24T09:00:17;31.60;73.60
69031;DHT22;56083;48.774;8.942;2023-06-24T09:02:46;32.30;73.00
69031;DHT22;56083;48.774;8.942;2023-06-24T09:05:13;31.40;75.40
69031;DHT22;56083;48.774;8.942;2023-06-24T09:07:38;32.10;72.90
69031;DHT22;56083;48.774;8.942;2023-06-24T09:10:10;32.70;71.10
69031;DHT22;56083;48.774;8.942;2023-06-24T09:12:37;32.90;69.20
69031;DHT22;56083;48.774;8.942;2023-06-24T09:15:04;33.60;67.70
69031;DHT22;56083;48.774;8.942;2023-06-24T09:17:30;34.60;65.60
69031;DHT22;56083;48.774;8.942;2023-06-24T09:20:03;34.60;60.70
69031;DHT22;56083;48.774;8.942;2023-06-24T09:22:30;35.20;59.20
69031;DHT22;56083;48.774;8.942;2023-06-24T09:25:00;34.60;57.70
69031;DHT22;56083;48.774;8.942;2023-06-24T09:27:31;33.60;62.00
69031;DHT22;56083;48.774;8.942;2023-06-24T09:29:59;34.70;63.60
69031;DHT22;56083;48.774;8.942;2023-06-24T09:32:32;35.90;56.80
69031;DHT22;56083;48.774;8.942;2023-06-24T09:34:58;36.50;56.70
69031;DHT22;56083;48.774;8.942;2023-06-24T09:37:26;37.20;52.50
69031;DHT22;56083;48.774;8.942;2023-06-24T09:39:56;37.50;52.10
69031;DHT22;56083;48.774;8.942;2023-06-24T09:42:25;38.00;50.70
69031;DHT22;56083;48.774;8.942;2023-06-24T09:44:54;37.50;50.00
69031;DHT22;56083;48.774;8.942;2023-06-24T09:47:21;37.80;51.00
69031;DHT22;56083;48.774;8.942;2023-06-24T09:49:51;38.40;49.00
69031;DHT22;56083;48.774;8.942;2023-06-24T09:52:26;38.60;49.40
69031;DHT22;56083;48.774;8.942;2023-06-24T09:55:00;37.80;48.20
69031;DHT22;56083;48.774;8.942;2023-06-24T09:57:29;36.80;48.60
69031;DHT22;56083;48.774;8.942;2023-06-24T09:59:59;35.10;49.40
69031;DHT22;56083;48.774;8.942;2023-06-24T10:02:32;33.40;52.00
69031;DHT22;56083;48.774;8.942;2023-06-24T10:05:01;31.90;53.70
69031;DHT22;56083;48.774;8.942;2023-06-24T10:07:28;30.40;56.00
69031;DHT22;56083;48.774;8.942;2023-06-24T10:09:54;30.20;57.20
69031;DHT22;56083;48.774;8.942;2023-06-24T10:12:20;32.90;56.30
69031;DHT22;56083;48.774;8.942;2023-06-24T10:14:46;33.70;54.40
69031;DHT22;56083;48.774;8.942;2023-06-24T10:17:12;35.50;52.40
69031;DHT22;56083;48.774;8.942;2023-06-24T10:19:39;37.20;49.80
69031;DHT22;56083;48.774;8.942;2023-06-24T10:22:08;38.30;47.90
69031;DHT22;56083;48.774;8.942;2023-06-24T10:24:39;39.30;46.60
69031;DHT22;56083;48.774;8.942;2023-06-24T10:27:09;40.20;44.80
69031;DHT22;56083;48.774;8.942;2023-06-24T10:29:39;40.10;43.20
69031;DHT22;56083;48.774;8.942;2023-06-24T10:32:06;40.20;43.70
69031;DHT22;56083;48.774;8.942;2023-06-24T10:34:43;40.70;42.40
69031;DHT22;56083;48.774;8.942;2023-06-24T10:39:58;40.80;39.80
69031;DHT22;56083;48.774;8.942;2023-06-24T10:42:29;40.30;39.20
69031;DHT22;56083;48.774;8.942;2023-06-24T10:45:00;39.20;39.60
69031;DHT22;56083;48.774;8.942;2023-06-24T10:47:30;40.40;39.20
69031;DHT22;56083;48.774;8.942;2023-06-24T10:49:56;41.20;38.70
69031;DHT22;56083;48.774;8.942;2023-06-24T10:52:23;41.20;39.30
69031;DHT22;56083;48.774;8.942;2023-06-24T10:54:50;41.00;39.10
69031;DHT22;56083;48.774;8.942;2023-06-24T10:57:21;40.90;39.20
69031;DHT22;56083;48.774;8.942;2023-06-24T10:59:50;41.30;38.80
69031;DHT22;56083;48.774;8.942;2023-06-24T11:02:24;41.10;39.10
69031;DHT22;56083;48.774;8.942;2023-06-24T11:07:20;41.90;38.90
69031;DHT22;56083;48.774;8.942;2023-06-24T11:09:54;42.60;37.60
69031;DHT22;56083;48.774;8.942;2023-06-24T11:12:25;42.50;36.50
69031;DHT22;56083;48.774;8.942;2023-06-24T11:14:51;42.10;35.40
69031;DHT22;56083;48.774;8.942;2023-06-24T11:17:20;40.40;36.90
69031;DHT22;56083;48.774;8.942;2023-06-24T11:19:46;40.50;37.80
69031;DHT22;56083;48.774;8.942;2023-06-24T11:22:13;39.90;36.00
69031;DHT22;56083;48.774;8.942;2023-06-24T11:24:39;40.20;36.10
69031;DHT22;56083;48.774;8.942;2023-06-24T11:27:05;39.50;35.40
69031;DHT22;56083;48.774;8.942;2023-06-24T11:29:32;39.60;36.10
69031;DHT22;56083;48.774;8.942;2023-06-24T11:31:57;39.40;36.80
69031;DHT22;56083;48.774;8.942;2023-06-24T11:34:23;39.60;34.30
69031;DHT22;56083;48.774;8.942;2023-06-24T11:36:49;40.10;35.80
69031;DHT22;56083;48.774;8.942;2023-06-24T11:39:26;40.50;36.70
69031;DHT22;56083;48.774;8.942;2023-06-24T11:41:53;41.20;35.80
69031;DHT22;56083;48.774;8.942;2023-06-24T11:44:20;41.30;35.80
69031;DHT22;56083;48.774;8.942;2023-06-24T11:46:47;41.80;35.00
69031;DHT22;56083;48.774;8.942;2023-06-24T11:49:13;42.10;35.60
69031;DHT22;56083;48.774;8.942;2023-06-24T11:51:49;42.00;35.50
69031;DHT22;56083;48.774;8.942;2023-06-24T11:54:19;41.10;33.80
69031;DHT22;56083;48.774;8.942;2023-06-24T11:56:51;40.70;35.10
69031;DHT22;56083;48.774;8.942;2023-06-24T11:59:23;38.40;36.90
69031;DHT22;56083;48.774;8.942;2023-06-24T12:01:56;38.20;37.80
69031;DHT22;56083;48.774;8.942;2023-06-24T12:04:28;38.90;37.80
69031;DHT22;56083;48.774;8.942;2023-06-24T12:06:54;38.60;37.60
69031;DHT22;56083;48.774;8.942;2023-06-24T12:09:20;39.50;37.50
69031;DHT22;56083;48.774;8.942;2023-06-24T12:11:45;40.20;37.20
69031;DHT22;56083;48.774;8.942;2023-06-24T12:14:11;40.70;33.90
69031;DHT22;56083;48.774;8.942;2023-06-24T12:16:38;40.90;35.10
69031;DHT22;56083;48.774;8.942;2023-06-24T12:19:05;41.80;34.40
69031;DHT22;56083;48.774;8.942;2023-06-24T12:21:31;42.50;34.40
69031;DHT22;56083;48.774;8.942;2023-06-24T12:23:57;42.70;33.20
69031;DHT22;56083;48.774;8.942;2023-06-24T12:26:22;43.20;33.10
69031;DHT22;56083;48.774;8.942;2023-06-24T12:28:48;43.20;33.60
69031;DHT22;56083;48.774;8.942;2023-06-24T12:31:14;43.40;33.40
69031;DHT22;56083;48.774;8.942;2023-06-24T12:33:41;43.60;31.80
69031;DHT22;56083;48.774;8.942;2023-06-24T12:36:07;43.50;32.20
69031;DHT22;56083;48.774;8.942;2023-06-24T12:38:32;42.90;32.20
69031;DHT22;56083;48.774;8.942;2023-06-24T12:40:58;43.00;32.00
69031;DHT22;56083;48.774;8.942;2023-06-24T12:43:24;43.00;32.10
69031;DHT22;56083;48.774;8.942;2023-06-24T12:45:49;43.30;31.70
69031;DHT22;56083;48.774;8.942;2023-06-24T12:48:16;42.40;31.10
69031;DHT22;56083;48.774;8.942;2023-06-24T12:50:42;41.00;31.80
69031;DHT22;56083;48.774;8.942;2023-06-24T12:53:08;41.50;33.80
69031;DHT22;56083;48.774;8.942;2023-06-24T12:55:36;41.90;31.20
69031;DHT22;56083;48.774;8.942;2023-06-24T12:58:02;41.80;32.00
69031;DHT22;56083;48.774;8.942;2023-06-24T13:00:39;41.10;32.10
69031;DHT22;56083;48.774;8.942;2023-06-24T13:03:06;42.10;32.40
69031;DHT22;56083;48.774;8.942;2023-06-24T13:05:33;43.00;31.70
69031;DHT22;56083;48.774;8.942;2023-06-24T13:08:00;43.20;31.40
69031;DHT22;56083;48.774;8.942;2023-06-24T13:10:26;42.80;31.50
69031;DHT22;56083;48.774;8.942;2023-06-24T13:12:51;43.00;30.70
69031;DHT22;56083;48.774;8.942;2023-06-24T13:15:18;42.20;30.50
69031;DHT22;56083;48.774;8.942;2023-06-24T13:17:43;43.10;31.50
69031;DHT22;56083;48.774;8.942;2023-06-24T13:20:10;43.50;30.90
69031;DHT22;56083;48.774;8.942;2023-06-24T13:22:35;43.50;30.50
69031;DHT22;56083;48.774;8.942;2023-06-24T13:25:01;43.50;31.30
69031;DHT22;56083;48.774;8.942;2023-06-24T13:27:27;43.40;30.80
69031;DHT22;56083;48.774;8.942;2023-06-24T13:29:52;43.20;30.60
69031;DHT22;56083;48.774;8.942;2023-06-24T13:32:18;43.00;30.70
69031;DHT22;56083;48.774;8.942;2023-06-24T13:34:45;42.90;31.90
69031;DHT22;56083;48.774;8.942;2023-06-24T13:37:10;42.80;32.00
69031;DHT22;56083;48.774;8.942;2023-06-24T13:39:36;42.90;31.90
69031;DHT22;56083;48.774;8.942;2023-06-24T13:42:02;42.80;31.70
69031;DHT22;56083;48.774;8.942;2023-06-24T13:44:27;43.30;30.00
69031;DHT22;56083;48.774;8.942;2023-06-24T13:46:53;43.00;30.30
69031;DHT22;56083;48.774;8.942;2023-06-24T13:49:19;42.60;30.00
69031;DHT22;56083;48.774;8.942;2023-06-24T13:51:45;42.70;30.00
69031;DHT22;56083;48.774;8.942;2023-06-24T13:54:10;42.40;30.40
69031;DHT22;56083;48.774;8.942;2023-06-24T13:56:36;42.10;31.10
69031;DHT22;56083;48.774;8.942;2023-06-24T13:59:02;42.00;31.40
69031;DHT22;56083;48.774;8.942;2023-06-24T14:01:28;41.30;30.80
69031;DHT22;56083;48.774;8.942;2023-06-24T14:03:55;41.40;31.40
69031;DHT22;56083;48.774;8.942;2023-06-24T14:06:22;41.80;31.40
69031;DHT22;56083;48.774;8.942;2023-06-24T14:08:48;42.20;31.00
69031;DHT22;56083;48.774;8.942;2023-06-24T14:11:14;42.00;31.50
69031;DHT22;56083;48.774;8.942;2023-06-24T14:13:41;42.70;31.10
69031;DHT22;56083;48.774;8.942;2023-06-24T14:16:07;43.00;30.10
69031;DHT22;56083;48.774;8.942;2023-06-24T14:18:33;42.00;30.90
69031;DHT22;56083;48.774;8.942;2023-06-24T14:21:01;42.30;31.00
69031;DHT22;56083;48.774;8.942;2023-06-24T14:23:28;42.00;31.30
69031;DHT22;56083;48.774;8.942;2023-06-24T14:25:54;42.20;31.50
69031;DHT22;56083;48.774;8.942;2023-06-24T14:28:20;42.40;31.20
69031;DHT22;56083;48.774;8.942;2023-06-24T14:30:46;42.80;31.60
69031;DHT22;56083;48.774;8.942;2023-06-24T14:33:12;42.60;31.80
69031;DHT22;56083;48.774;8.942;2023-06-24T14:35:38;42.80;32.30
69031;DHT22;56083;48.774;8.942;2023-06-24T14:38:04;43.10;31.00
69031;DHT22;56083;48.774;8.942;2023-06-24T14:40:30;43.10;30.60
69031;DHT22;56083;48.774;8.942;2023-06-24T14:42:56;42.20;31.00
69031;DHT22;56083;48.774;8.942;2023-06-24T14:45:21;41.30;31.10
69031;DHT22;56083;48.774;8.942;2023-06-24T14:47:47;40.30;31.80
69031;DHT22;56083;48.774;8.942;2023-06-24T14:50:13;38.40;34.10
69031;DHT22;56083;48.774;8.942;2023-06-24T14:52:39;39.00;35.00
69031;DHT22;56083;48.774;8.942;2023-06-24T14:55:05;39.00;35.50
69031;DHT22;56083;48.774;8.942;2023-06-24T14:57:31;39.00;33.30
69031;DHT22;56083;48.774;8.942;2023-06-24T14:59:56;39.10;33.20
69031;DHT22;56083;48.774;8.942;2023-06-24T15:02:22;39.20;33.10
69031;DHT22;56083;48.774;8.942;2023-06-24T15:04:48;39.70;34.90
69031;DHT22;56083;48.774;8.942;2023-06-24T15:07:13;40.10;35.40
69031;DHT22;56083;48.774;8.942;2023-06-24T15:09:39;40.10;35.00
69031;DHT22;56083;48.774;8.942;2023-06-24T15:12:05;39.80;35.10
69031;DHT22;56083;48.774;8.942;2023-06-24T15:14:31;39.90;35.00
69031;DHT22;56083;48.774;8.942;2023-06-24T15:16:56;40.30;35.00
69031;DHT22;56083;48.774;8.942;2023-06-24T15:19:24;39.90;35.30
69031;DHT22;56083;48.774;8.942;2023-06-24T15:21:49;39.70;35.00
69031;DHT22;56083;48.774;8.942;2023-06-24T15:24:15;39.50;35.60
69031;DHT22;56083;48.774;8.942;2023-06-24T15:26:41;39.20;35.40
69031;DHT22;56083;48.774;8.942;2023-06-24T15:29:06;39.20;35.30
69031;DHT22;56083;48.774;8.942;2023-06-24T15:31:32;39.00;35.70
69031;DHT22;56083;48.774;8.942;2023-06-24T15:33:57;38.50;36.20
69031;DHT22;56083;48.774;8.942;2023-06-24T15:36:23;38.10;36.80
69031;DHT22;56083;48.774;8.942;2023-06-24T15:38:52;38.00;36.40
69031;DHT22;56083;48.774;8.942;2023-06-24T15:41:18;37.90;36.90
69031;DHT22;56083;48.774;8.942;2023-06-24T15:43:43;37.70;38.00
69031;DHT22;56083;48.774;8.942;2023-06-24T15:46:09;37.30;38.30
69031;DHT22;56083;48.774;8.942;2023-06-24T15:48:35;37.40;38.30
69031;DHT22;56083;48.774;8.942;2023-06-24T15:51:02;37.20;38.20